createdAt,value
2018-12-05T00:00:38.298Z,3.43
2018-12-05T00:03:06.655Z,3.63
2018-12-05T00:05:34.998Z,3.97
2018-12-05T00:08:03.336Z,4.20
2018-12-05T00:10:31.647Z,4.10
2018-12-05T00:12:59.987Z,4.47
2018-12-05T00:15:28.309Z,4.13
2018-12-05T00:17:56.633Z,4.27
2018-12-05T00:20:24.980Z,3.90
2018-12-05T00:22:53.300Z,4.30
2018-12-05T00:25:21.671Z,4.53
2018-12-05T00:27:50.619Z,4.60
2018-12-05T00:30:19.009Z,4.13
2018-12-05T00:32:47.724Z,4.67
2018-12-05T00:35:16.040Z,4.10
2018-12-05T00:37:44.410Z,4.40
2018-12-05T00:40:13.017Z,4.40
2018-12-05T00:42:41.358Z,4.10
2018-12-05T00:45:09.711Z,3.97
2018-12-05T00:47:38.026Z,4.77
2018-12-05T00:50:06.603Z,4.33
2018-12-05T00:52:35.185Z,4.27
2018-12-05T00:55:03.522Z,4.23
2018-12-05T00:57:31.838Z,4.10
2018-12-05T01:00:00.167Z,4.13
2018-12-05T01:02:28.552Z,4.80
2018-12-05T01:04:56.865Z,3.70
2018-12-05T01:07:25.198Z,4.13
2018-12-05T01:13:00.378Z,3.93
2018-12-05T01:15:42.612Z,4.23
2018-12-05T01:18:10.994Z,3.90
2018-12-05T01:20:39.324Z,3.90
2018-12-05T01:23:07.707Z,4.40
2018-12-05T01:25:46.313Z,4.63
2018-12-05T01:28:14.707Z,4.50
2018-12-05T01:30:43.033Z,3.93
2018-12-05T01:33:11.372Z,3.90
2018-12-05T01:35:39.710Z,3.90
2018-12-05T01:38:08.069Z,4.10
2018-12-05T01:40:36.364Z,4.07
2018-12-05T01:43:04.694Z,4.27
2018-12-05T01:45:32.990Z,4.70
2018-12-05T01:48:01.326Z,4.27
2018-12-05T01:50:29.664Z,4.97
2018-12-05T01:52:57.998Z,4.83
2018-12-05T01:55:26.302Z,3.40
2018-12-05T01:57:54.613Z,3.60
2018-12-05T02:00:22.979Z,4.70
2018-12-05T02:02:51.264Z,4.37
2018-12-05T02:05:19.678Z,3.80
2018-12-05T02:07:47.993Z,4.50
2018-12-05T02:10:16.337Z,4.23
2018-12-05T02:12:44.702Z,4.13
2018-12-05T02:15:13.026Z,4.10
2018-12-05T02:17:41.356Z,4.10
2018-12-05T02:20:09.825Z,4.03
2018-12-05T02:22:38.145Z,3.70
2018-12-05T02:25:06.621Z,3.60
2018-12-05T02:27:34.954Z,4.27
2018-12-05T02:30:03.422Z,4.20
2018-12-05T02:32:31.763Z,4.17
2018-12-05T02:35:00.106Z,4.43
2018-12-05T02:37:28.470Z,3.57
2018-12-05T02:39:56.777Z,4.87
2018-12-05T02:42:25.073Z,5.00
2018-12-05T02:44:53.423Z,4.77
2018-12-05T02:47:21.751Z,4.10
2018-12-05T02:49:50.078Z,4.60
2018-12-05T02:52:18.403Z,4.33
2018-12-05T02:54:46.714Z,4.67
2018-12-05T02:57:15.026Z,4.13
2018-12-05T02:59:43.378Z,3.97
2018-12-05T03:02:11.684Z,3.53
2018-12-05T03:04:40.037Z,4.10
2018-12-05T03:07:08.339Z,3.90
2018-12-05T03:09:36.703Z,4.57
2018-12-05T03:12:05.167Z,3.73
2018-12-05T03:14:33.515Z,3.70
2018-12-05T03:17:01.832Z,4.67
2018-12-05T03:19:30.297Z,4.77
2018-12-05T03:21:58.651Z,3.60
2018-12-05T03:24:27.532Z,3.50
2018-12-05T03:26:55.846Z,3.73
2018-12-05T03:29:24.152Z,3.90
2018-12-05T03:31:52.510Z,4.23
2018-12-05T03:34:20.805Z,4.57
2018-12-05T03:36:49.112Z,3.67
2018-12-05T03:39:17.468Z,4.60
2018-12-05T03:41:45.752Z,4.23
2018-12-05T03:44:14.094Z,3.47
2018-12-05T03:46:42.424Z,4.17
2018-12-05T03:49:10.759Z,3.83
2018-12-05T03:51:39.043Z,4.07
2018-12-05T03:54:07.390Z,4.30
2018-12-05T03:56:35.679Z,4.47
2018-12-05T03:59:04.073Z,4.80
2018-12-05T04:01:32.366Z,4.10
2018-12-05T04:04:00.774Z,4.37
2018-12-05T04:06:29.151Z,5.23
2018-12-05T04:08:57.450Z,3.90
2018-12-05T04:11:25.774Z,4.17
2018-12-05T04:13:54.089Z,4.37
2018-12-05T04:16:22.420Z,4.20
2018-12-05T04:18:50.733Z,4.20
2018-12-05T04:21:19.061Z,4.53
2018-12-05T04:23:48.009Z,4.10
2018-12-05T04:26:16.323Z,4.13
2018-12-05T04:28:44.667Z,3.93
2018-12-05T04:31:13.002Z,4.10
2018-12-05T04:33:41.391Z,3.50
2018-12-05T04:36:09.725Z,3.87
2018-12-05T04:38:38.125Z,3.93
2018-12-05T04:41:06.453Z,3.67
2018-12-05T04:43:34.777Z,4.27
2018-12-05T04:46:03.110Z,3.70
2018-12-05T04:48:31.417Z,4.57
2018-12-05T04:51:00.726Z,3.97
2018-12-05T04:53:29.106Z,4.10
2018-12-05T04:55:57.398Z,4.30
2018-12-05T04:58:25.742Z,6.20
2018-12-05T05:00:54.046Z,5.77
2018-12-05T05:03:22.362Z,6.40
2018-12-05T05:05:50.704Z,6.07
2018-12-05T05:08:19.007Z,8.50
2018-12-05T05:10:47.368Z,9.50
2018-12-05T05:13:15.669Z,6.20
2018-12-05T05:15:43.976Z,5.47
2018-12-05T05:18:12.342Z,5.70
2018-12-05T05:20:40.708Z,5.07
2018-12-05T05:23:09.111Z,4.80
2018-12-05T05:25:37.472Z,3.73
2018-12-05T05:28:05.850Z,4.00
2018-12-05T05:30:34.209Z,4.60
2018-12-05T05:33:02.542Z,4.53
2018-12-05T05:35:30.848Z,4.00
2018-12-05T05:37:59.243Z,4.23
2018-12-05T05:40:27.565Z,4.27
2018-12-05T05:42:55.901Z,5.20
2018-12-05T05:45:24.214Z,4.17
2018-12-05T05:47:52.550Z,5.67
2018-12-05T05:50:20.883Z,5.20
2018-12-05T05:52:49.254Z,5.37
2018-12-05T05:55:17.549Z,5.97
2018-12-05T05:57:45.877Z,4.87
2018-12-05T06:00:14.168Z,4.83
2018-12-05T06:02:42.504Z,3.87
2018-12-05T06:08:10.593Z,3.30
2018-12-05T06:10:38.945Z,3.63
2018-12-05T06:13:07.298Z,4.10
2018-12-05T06:15:35.606Z,3.50
2018-12-05T06:18:03.960Z,3.57
2018-12-05T06:20:32.278Z,4.27
2018-12-05T06:23:00.607Z,3.40
2018-12-05T06:25:28.921Z,2.67
2018-12-05T06:28:10.012Z,3.20
2018-12-05T06:30:38.390Z,3.13
2018-12-05T06:33:06.729Z,3.33
2018-12-05T06:35:35.053Z,3.40
2018-12-05T06:38:16.239Z,2.63
2018-12-05T06:40:44.551Z,2.77
2018-12-05T06:43:12.863Z,2.30
2018-12-05T06:45:41.177Z,2.90
2018-12-05T06:48:09.497Z,3.30
2018-12-05T06:50:37.802Z,5.37
2018-12-05T06:53:06.126Z,3.60
2018-12-05T06:55:57.575Z,3.97
2018-12-05T06:58:40.148Z,3.27
2018-12-05T07:01:22.806Z,3.10
2018-12-05T07:04:03.538Z,3.10
2018-12-05T07:06:31.839Z,3.00
2018-12-05T07:09:12.550Z,2.80
2018-12-05T07:12:04.001Z,2.43
2018-12-05T07:14:35.775Z,2.87
2018-12-05T07:17:10.348Z,2.23
2018-12-05T07:19:42.175Z,2.57
2018-12-05T07:22:25.115Z,2.27
2018-12-05T07:25:12.490Z,2.57
2018-12-05T07:27:40.911Z,2.40
2018-12-05T07:30:21.836Z,2.40
2018-12-05T07:32:50.207Z,2.53
2018-12-05T07:35:18.506Z,2.23
2018-12-05T07:37:46.867Z,2.00
2018-12-05T07:40:32.210Z,2.27
2018-12-05T07:43:13.832Z,2.47
2018-12-05T07:46:01.182Z,2.47
2018-12-05T07:48:52.564Z,2.37
2018-12-05T07:51:24.261Z,2.90
2018-12-05T07:54:12.134Z,2.40
2018-12-05T07:57:10.607Z,3.10
2018-12-05T07:59:58.699Z,2.63
2018-12-05T08:02:39.801Z,2.40
2018-12-05T08:05:21.239Z,2.60
2018-12-05T08:07:52.853Z,2.10
2018-12-05T08:10:34.009Z,2.37
2018-12-05T08:13:15.564Z,2.40
2018-12-05T08:15:52.032Z,2.47
2018-12-05T08:18:33.169Z,2.23
2018-12-05T08:24:07.842Z,2.50
2018-12-05T08:26:40.156Z,2.23
2018-12-05T08:29:20.991Z,2.53
2018-12-05T08:32:01.699Z,2.53
2018-12-05T08:34:33.855Z,2.77
2018-12-05T08:37:19.118Z,2.87
2018-12-05T08:40:04.084Z,3.17
2018-12-05T08:42:47.236Z,3.00
2018-12-05T08:45:27.941Z,2.60
2018-12-05T08:48:10.106Z,3.40
2018-12-05T08:50:55.091Z,4.10
2018-12-05T08:53:29.063Z,3.97
2018-12-05T08:56:25.173Z,5.13
2018-12-05T08:58:56.292Z,4.50
2018-12-05T09:01:27.739Z,8.83
2018-12-05T09:04:00.129Z,5.60
2018-12-05T09:06:31.357Z,5.80
2018-12-05T09:09:12.318Z,4.23
2018-12-05T09:11:40.734Z,18.93
2018-12-05T09:14:32.412Z,7.13
2018-12-05T09:17:13.191Z,5.53
2018-12-05T09:19:41.510Z,4.63
2018-12-05T09:22:24.253Z,4.70
2018-12-05T09:24:55.907Z,4.00
2018-12-05T09:27:36.563Z,4.23
2018-12-05T09:30:18.899Z,7.67
2018-12-05T09:33:01.524Z,5.40
2018-12-05T09:35:43.010Z,6.30
2018-12-05T09:38:23.838Z,4.50
2018-12-05T09:41:05.210Z,5.00
2018-12-05T09:43:47.323Z,4.03
2018-12-05T09:46:30.172Z,4.53
2018-12-05T09:52:11.549Z,4.17
2018-12-05T09:54:41.384Z,4.50
2018-12-05T09:57:23.346Z,4.07
2018-12-05T10:06:00.271Z,3.67
2018-12-05T10:08:36.166Z,3.63
2018-12-05T10:11:10.142Z,3.90
2018-12-05T10:20:04.961Z,3.70
2018-12-05T10:22:47.692Z,4.73
2018-12-05T10:25:36.977Z,3.90
2018-12-05T10:28:19.817Z,3.60
2018-12-05T10:31:02.405Z,3.77
2018-12-05T10:33:43.158Z,4.13
2018-12-05T10:36:24.703Z,3.83
2018-12-05T10:39:06.638Z,3.80
2018-12-05T10:41:48.703Z,3.97
2018-12-05T10:44:30.241Z,3.50
2018-12-05T10:47:11.792Z,3.97
2018-12-05T10:49:53.206Z,3.77
2018-12-05T10:52:35.653Z,4.07
2018-12-05T10:55:29.335Z,4.37
2018-12-05T10:57:57.688Z,4.17
2018-12-05T11:03:26.244Z,3.73
2018-12-05T11:06:12.697Z,3.70
2018-12-05T11:11:39.546Z,4.27
2018-12-05T11:14:30.058Z,4.03
2018-12-05T11:17:17.509Z,3.77
2018-12-05T11:22:46.500Z,3.77
2018-12-05T11:27:50.022Z,4.47
2018-12-05T11:30:18.376Z,4.23
2018-12-05T11:32:46.678Z,3.80
2018-12-05T11:35:15.097Z,4.20
2018-12-05T11:37:56.996Z,3.80
2018-12-05T11:40:25.303Z,4.00
2018-12-05T11:43:06.279Z,3.80
2018-12-05T11:45:47.824Z,4.93
2018-12-05T11:48:29.413Z,3.70
2018-12-05T11:50:57.693Z,4.10
2018-12-05T11:53:38.459Z,3.97
2018-12-05T11:56:19.881Z,4.17
2018-12-05T11:59:00.571Z,4.00
2018-12-05T12:01:43.227Z,4.43
2018-12-05T12:04:24.714Z,4.60
2018-12-05T12:07:10.190Z,4.70
2018-12-05T12:09:54.007Z,4.40
2018-12-05T12:12:48.332Z,4.63
2018-12-05T12:15:33.745Z,5.23
2018-12-05T12:18:02.202Z,5.87
2018-12-05T12:20:43.652Z,5.00
2018-12-05T12:23:25.098Z,6.40
2018-12-05T12:26:06.583Z,5.93
2018-12-05T12:28:48.059Z,4.40
2018-12-05T12:31:19.375Z,4.53
2018-12-05T12:34:02.423Z,4.53
2018-12-05T12:36:43.175Z,5.40
2018-12-05T12:39:24.749Z,4.93
2018-12-05T12:42:05.409Z,5.30
2018-12-05T12:44:50.906Z,4.73
2018-12-05T12:47:31.619Z,5.30
2018-12-05T12:50:12.446Z,5.00
2018-12-05T12:52:54.794Z,4.47
2018-12-05T12:55:35.589Z,4.93
2018-12-05T12:58:18.083Z,4.83
2018-12-05T13:00:59.626Z,5.17
2018-12-05T13:03:41.214Z,5.10
2018-12-05T13:06:24.001Z,4.90
2018-12-05T13:08:55.429Z,5.70
2018-12-05T13:11:36.484Z,4.77
2018-12-05T13:14:17.752Z,4.87
2018-12-05T13:16:51.086Z,4.60
2018-12-05T13:19:26.681Z,5.27
2018-12-05T13:22:15.967Z,5.50
2018-12-05T13:24:57.850Z,5.33
2018-12-05T13:27:38.619Z,4.93
2018-12-05T13:30:23.135Z,4.23
2018-12-05T13:32:54.395Z,4.60
2018-12-05T13:35:24.390Z,5.33
2018-12-05T13:38:09.385Z,5.30
2018-12-05T13:40:51.965Z,5.00
2018-12-05T13:46:49.593Z,5.67
2018-12-05T13:49:17.891Z,4.57
2018-12-05T13:52:00.535Z,4.80
2018-12-05T13:54:28.878Z,4.47
2018-12-05T13:57:11.737Z,5.80
2018-12-05T13:59:40.043Z,5.37
2018-12-05T14:02:22.013Z,4.97
2018-12-05T14:05:10.170Z,5.57
2018-12-05T14:07:38.517Z,4.97
2018-12-05T14:10:20.560Z,5.33
2018-12-05T14:12:49.055Z,5.63
2018-12-05T14:15:31.706Z,4.70
2018-12-05T14:18:01.747Z,5.10
2018-12-05T14:23:43.927Z,4.67
2018-12-05T14:26:12.286Z,5.23
2018-12-05T14:28:52.949Z,5.20
2018-12-05T14:31:44.994Z,5.20
2018-12-05T14:34:27.964Z,4.57
2018-12-05T14:37:10.641Z,5.20
2018-12-05T14:40:04.194Z,5.20
2018-12-05T14:42:56.303Z,5.30
2018-12-05T14:45:43.903Z,4.80
2018-12-05T14:48:19.041Z,4.90
2018-12-05T14:50:47.410Z,4.50
2018-12-05T14:53:15.777Z,4.67
2018-12-05T14:55:44.093Z,5.10
2018-12-05T14:58:25.481Z,4.87
2018-12-05T15:01:07.020Z,4.30
2018-12-05T15:03:59.019Z,4.80
2018-12-05T15:06:50.388Z,4.60
2018-12-05T15:09:32.350Z,4.67
2018-12-05T15:12:26.814Z,4.80
2018-12-05T15:15:08.343Z,4.87
2018-12-05T15:17:36.635Z,4.40
2018-12-05T15:20:05.111Z,4.77
2018-12-05T15:22:47.946Z,5.00
2018-12-05T15:25:33.457Z,5.03
2018-12-05T15:28:01.750Z,4.73
2018-12-05T15:30:30.266Z,4.67
2018-12-05T15:33:20.480Z,5.57
2018-12-05T15:35:48.782Z,4.87
2018-12-05T15:38:17.132Z,4.73
2018-12-05T15:40:45.448Z,5.33
2018-12-05T15:43:32.918Z,5.37
2018-12-05T15:46:13.773Z,4.93
2018-12-05T15:48:55.236Z,5.10
2018-12-05T15:51:36.808Z,5.50
2018-12-05T15:54:18.356Z,4.80
2018-12-05T15:56:46.627Z,5.50
2018-12-05T15:59:29.417Z,5.83
2018-12-05T16:02:11.863Z,5.80
2018-12-05T16:04:53.438Z,6.07
2018-12-05T16:07:34.879Z,5.40
2018-12-05T16:10:03.225Z,5.17
2018-12-05T16:12:50.666Z,5.10
2018-12-05T16:15:18.969Z,5.40
2018-12-05T16:18:01.153Z,5.27
2018-12-05T16:23:19.328Z,4.87
2018-12-05T16:26:10.442Z,5.10
2018-12-05T16:28:47.042Z,4.77
2018-12-05T16:31:27.669Z,5.20
2018-12-05T16:33:55.974Z,4.87
2018-12-05T16:36:36.671Z,5.50
2018-12-05T16:39:19.987Z,5.07
2018-12-05T16:41:48.251Z,5.07
2018-12-05T16:44:30.308Z,5.33
2018-12-05T16:47:11.817Z,5.43
2018-12-05T16:49:53.372Z,5.93
2018-12-05T16:52:43.611Z,6.33
2018-12-05T16:55:24.263Z,6.10
2018-12-05T16:57:52.692Z,6.10
2018-12-05T17:00:39.951Z,6.77
2018-12-05T17:03:22.847Z,5.87
2018-12-05T17:05:51.094Z,5.63
2018-12-05T17:08:31.856Z,6.27
2018-12-05T17:11:30.221Z,5.30
2018-12-05T17:14:18.380Z,5.30
2018-12-05T17:16:49.842Z,4.97
2018-12-05T17:19:18.152Z,4.40
2018-12-05T17:21:46.498Z,5.37
2018-12-05T17:24:14.829Z,5.27
2018-12-05T17:27:03.121Z,5.57
2018-12-05T17:29:31.475Z,5.30
2018-12-05T17:31:59.871Z,5.13
2018-12-05T17:34:45.110Z,5.37
2018-12-05T17:37:13.372Z,4.90
2018-12-05T17:39:41.734Z,5.80
2018-12-05T17:42:23.980Z,5.00
2018-12-05T17:45:05.533Z,4.83
2018-12-05T17:47:47.095Z,5.30
2018-12-05T17:50:15.365Z,5.67
2018-12-05T17:52:43.677Z,6.63
2018-12-05T17:55:12.019Z,7.03
2018-12-05T17:57:40.321Z,6.93
2018-12-05T18:00:23.099Z,5.83
2018-12-05T18:03:10.373Z,5.93
2018-12-05T18:05:51.202Z,6.13
2018-12-05T18:08:19.484Z,5.73
2018-12-05T18:10:47.840Z,5.90
2018-12-05T18:13:28.907Z,5.83
2018-12-05T18:16:10.336Z,5.53
2018-12-05T18:19:04.794Z,5.50
2018-12-05T18:21:33.140Z,4.97
2018-12-05T18:24:01.519Z,5.13
2018-12-05T18:26:29.861Z,4.83
2018-12-05T18:28:58.254Z,4.83
2018-12-05T18:31:26.601Z,4.93
2018-12-05T18:34:08.472Z,5.17
2018-12-05T18:36:36.751Z,4.67
2018-12-05T18:39:19.520Z,5.17
2018-12-05T18:42:01.940Z,4.73
2018-12-05T18:44:45.429Z,4.57
2018-12-05T18:47:26.938Z,4.70
2018-12-05T18:50:08.699Z,4.43
2018-12-05T18:52:49.896Z,5.13
2018-12-05T18:55:31.333Z,4.80
2018-12-05T18:57:59.744Z,4.60
2018-12-05T19:00:40.509Z,5.13
2018-12-05T19:03:08.837Z,4.53
2018-12-05T19:05:49.736Z,4.43
2018-12-05T19:08:18.064Z,4.23
2018-12-05T19:10:46.425Z,4.90
2018-12-05T19:13:14.736Z,4.50
2018-12-05T19:15:49.563Z,5.33
2018-12-05T19:18:31.671Z,4.87
2018-12-05T19:20:59.967Z,6.30
2018-12-05T19:23:42.762Z,5.33
2018-12-05T19:26:11.050Z,6.13
2018-12-05T19:28:55.895Z,5.47
2018-12-05T19:31:37.401Z,5.33
2018-12-05T19:34:05.751Z,5.30
2018-12-05T19:36:48.412Z,5.10
2018-12-05T19:39:16.728Z,7.77
2018-12-05T19:41:45.033Z,6.20
2018-12-05T19:44:13.389Z,5.77
2018-12-05T19:46:41.742Z,7.27
2018-12-05T19:49:22.490Z,5.63
2018-12-05T19:52:05.011Z,5.37
2018-12-05T19:54:46.579Z,5.90
2018-12-05T19:57:14.893Z,6.50
2018-12-05T19:59:43.209Z,6.00
2018-12-05T20:02:25.269Z,5.77
2018-12-05T20:04:53.671Z,5.77
2018-12-05T20:07:21.964Z,5.50
2018-12-05T20:10:04.216Z,5.00
2018-12-05T20:12:45.647Z,5.40
2018-12-05T20:15:13.967Z,5.33
2018-12-05T20:17:58.697Z,4.83
2018-12-05T20:20:27.104Z,5.47
2018-12-05T20:22:55.372Z,5.20
2018-12-05T20:25:23.654Z,5.50
2018-12-05T20:28:06.448Z,5.57
2018-12-05T20:30:34.724Z,5.80
2018-12-05T20:33:17.512Z,5.10
2018-12-05T20:35:59.096Z,5.93
2018-12-05T20:38:41.441Z,5.63
2018-12-05T20:41:09.727Z,5.63
2018-12-05T20:43:50.781Z,5.83
2018-12-05T20:46:32.312Z,5.53
2018-12-05T20:49:13.879Z,5.83
2018-12-05T20:51:42.205Z,5.73
2018-12-05T20:54:23.096Z,6.17
2018-12-05T20:57:04.555Z,5.27
2018-12-05T20:59:45.934Z,5.80
2018-12-05T21:02:36.020Z,5.40
2018-12-05T21:05:17.914Z,5.40
2018-12-05T21:07:46.211Z,6.60
2018-12-05T21:10:14.548Z,5.97
2018-12-05T21:12:55.512Z,6.53
2018-12-05T21:15:23.814Z,6.00
2018-12-05T21:17:52.196Z,5.57
2018-12-05T21:20:34.397Z,5.90
2018-12-05T21:23:02.748Z,6.77
2018-12-05T21:25:47.433Z,6.70
2018-12-05T21:28:15.753Z,6.17
2018-12-05T21:30:56.675Z,5.63
2018-12-05T21:33:39.245Z,5.53
2018-12-05T21:36:07.555Z,5.87
2018-12-05T21:38:35.803Z,5.60
2018-12-05T21:41:17.880Z,5.70
2018-12-05T21:43:59.418Z,5.73
2018-12-05T21:46:27.729Z,5.67
2018-12-05T21:49:08.487Z,6.10
2018-12-05T21:51:49.997Z,6.60
2018-12-05T21:54:32.499Z,6.13
2018-12-05T21:57:14.907Z,5.57
2018-12-05T21:59:57.476Z,6.43
2018-12-05T22:02:25.771Z,6.07
2018-12-05T22:05:06.714Z,6.40
2018-12-05T22:07:35.021Z,6.07
2018-12-05T22:10:16.004Z,5.47
2018-12-05T22:12:44.319Z,6.67
2018-12-05T22:15:12.583Z,5.63
2018-12-05T22:17:40.884Z,6.70
2018-12-05T22:20:32.962Z,5.73
2018-12-05T22:23:13.890Z,6.43
2018-12-05T22:25:56.054Z,5.53
2018-12-05T22:28:36.843Z,6.03
2018-12-05T22:31:28.946Z,5.77
2018-12-05T22:34:11.667Z,5.80
2018-12-05T22:36:39.955Z,5.73
2018-12-05T22:39:21.992Z,6.07
2018-12-05T22:41:50.299Z,5.93
2018-12-05T22:44:32.272Z,5.93
2018-12-05T22:47:00.739Z,5.80
2018-12-05T22:49:29.019Z,5.67
2018-12-05T22:52:11.971Z,5.87
2018-12-05T22:54:54.575Z,5.67
2018-12-05T22:57:36.192Z,4.93
2018-12-05T23:00:18.391Z,5.50
2018-12-05T23:02:46.667Z,6.00
2018-12-05T23:05:38.183Z,6.53
2018-12-05T23:08:20.156Z,5.70
2018-12-05T23:11:00.859Z,6.07
2018-12-05T23:13:42.408Z,5.23
2018-12-05T23:16:23.959Z,5.47
2018-12-05T23:18:52.218Z,5.63
2018-12-05T23:21:33.170Z,6.07
2018-12-05T23:24:01.434Z,5.87
2018-12-05T23:26:29.726Z,5.87
2018-12-05T23:28:58.006Z,6.10
2018-12-05T23:31:40.672Z,6.67
2018-12-05T23:34:21.300Z,5.80
2018-12-05T23:36:49.567Z,5.67
2018-12-05T23:39:17.886Z,6.00
2018-12-05T23:41:59.390Z,5.70
2018-12-05T23:44:27.681Z,6.10
2018-12-05T23:47:19.030Z,6.30
2018-12-05T23:49:47.320Z,5.83
2018-12-05T23:52:29.454Z,5.83
2018-12-05T23:55:11.033Z,6.00
2018-12-05T23:57:39.338Z,6.47
